sensor_id;sensor_type;location;lat;lon;timestamp;pressure;altitude;pressure_sealevel;temperature;humidity
48364;BME280;34170;54.364;18.582;2023-02-15T00:02:03;101991.84;;;6.06;90.51
48364;BME280;34170;54.364;18.582;2023-02-15T00:04:30;102002.16;;;5.95;92.57
48364;BME280;34170;54.364;18.582;2023-02-15T00:07:18;101984.56;;;5.90;92.22
48364;BME280;34170;54.364;18.582;2023-02-15T00:09:46;101982.97;;;5.86;92.90
48364;BME280;34170;54.364;18.582;2023-02-15T00:12:15;101988.81;;;5.76;93.92
48364;BME280;34170;54.364;18.582;2023-02-15T00:14:42;101973.44;;;5.81;94.47
48364;BME280;34170;54.364;18.582;2023-02-15T00:17:10;101981.63;;;5.97;93.06
48364;BME280;34170;54.364;18.582;2023-02-15T00:19:37;101983.56;;;6.12;91.28
48364;BME280;34170;54.364;18.582;2023-02-15T00:22:05;101978.50;;;6.06;90.85
48364;BME280;34170;54.364;18.582;2023-02-15T00:24:32;101980.53;;;6.01;91.37
48364;BME280;34170;54.364;18.582;2023-02-15T00:27:00;101990.97;;;5.86;92.66
48364;BME280;34170;54.364;18.582;2023-02-15T00:29:27;101986.66;;;5.84;91.38
48364;BME280;34170;54.364;18.582;2023-02-15T00:31:55;101982.84;;;6.08;89.97
48364;BME280;34170;54.364;18.582;2023-02-15T00:34:25;101965.53;;;5.98;91.03
48364;BME280;34170;54.364;18.582;2023-02-15T00:36:53;101977.56;;;6.07;91.35
48364;BME280;34170;54.364;18.582;2023-02-15T00:39:20;101967.53;;;5.93;90.11
48364;BME280;34170;54.364;18.582;2023-02-15T00:41:48;101961.59;;;5.86;91.19
48364;BME280;34170;54.364;18.582;2023-02-15T00:44:17;101974.69;;;5.92;91.88
48364;BME280;34170;54.364;18.582;2023-02-15T00:46:44;101966.22;;;5.83;92.08
48364;BME280;34170;54.364;18.582;2023-02-15T00:49:12;101966.66;;;5.92;91.14
48364;BME280;34170;54.364;18.582;2023-02-15T00:51:39;101954.03;;;5.77;91.79
48364;BME280;34170;54.364;18.582;2023-02-15T00:54:07;101947.41;;;5.67;92.29
48364;BME280;34170;54.364;18.582;2023-02-15T00:56:35;101949.28;;;5.65;92.64
48364;BME280;34170;54.364;18.582;2023-02-15T00:59:03;101942.88;;;5.69;92.92
48364;BME280;34170;54.364;18.582;2023-02-15T01:01:30;101947.19;;;5.71;92.68
48364;BME280;34170;54.364;18.582;2023-02-15T01:03:58;101947.13;;;5.73;92.83
48364;BME280;34170;54.364;18.582;2023-02-15T01:06:29;101943.34;;;5.01;96.71
48364;BME280;34170;54.364;18.582;2023-02-15T01:08:56;101927.78;;;4.51;100.00
48364;BME280;34170;54.364;18.582;2023-02-15T01:11:24;101942.84;;;4.72;100.00
48364;BME280;34170;54.364;18.582;2023-02-15T01:13:56;101941.34;;;4.86;100.00
48364;BME280;34170;54.364;18.582;2023-02-15T01:16:26;101929.41;;;4.94;100.00
48364;BME280;34170;54.364;18.582;2023-02-15T01:18:54;101929.88;;;4.43;100.00
48364;BME280;34170;54.364;18.582;2023-02-15T01:21:24;101936.16;;;4.62;100.00
48364;BME280;34170;54.364;18.582;2023-02-15T01:23:52;101931.41;;;5.10;100.00
48364;BME280;34170;54.364;18.582;2023-02-15T01:26:19;101917.09;;;4.92;99.21
48364;BME280;34170;54.364;18.582;2023-02-15T01:28:47;101929.28;;;5.16;100.00
48364;BME280;34170;54.364;18.582;2023-02-15T01:31:18;101930.28;;;4.54;100.00
48364;BME280;34170;54.364;18.582;2023-02-15T01:33:47;101920.25;;;5.00;100.00
48364;BME280;34170;54.364;18.582;2023-02-15T01:36:15;101907.09;;;4.76;100.00
48364;BME280;34170;54.364;18.582;2023-02-15T01:38:44;101917.28;;;4.87;100.00
48364;BME280;34170;54.364;18.582;2023-02-15T01:41:12;101905.75;;;4.25;100.00
48364;BME280;34170;54.364;18.582;2023-02-15T01:43:56;101910.97;;;4.49;100.00
48364;BME280;34170;54.364;18.582;2023-02-15T01:46:33;101914.09;;;4.79;100.00
48364;BME280;34170;54.364;18.582;2023-02-15T01:49:08;101905.78;;;4.66;100.00
48364;BME280;34170;54.364;18.582;2023-02-15T01:51:39;101914.81;;;4.21;100.00
48364;BME280;34170;54.364;18.582;2023-02-15T01:56:38;101926.63;;;4.97;100.00
48364;BME280;34170;54.364;18.582;2023-02-15T01:59:11;101901.25;;;4.48;100.00
48364;BME280;34170;54.364;18.582;2023-02-15T02:01:41;101913.28;;;5.16;100.00
48364;BME280;34170;54.364;18.582;2023-02-15T02:04:14;101904.50;;;4.75;100.00
48364;BME280;34170;54.364;18.582;2023-02-15T02:06:46;101912.56;;;4.32;100.00
48364;BME280;34170;54.364;18.582;2023-02-15T02:09:15;101915.53;;;3.82;100.00
48364;BME280;34170;54.364;18.582;2023-02-15T02:11:46;101900.97;;;4.74;100.00
48364;BME280;34170;54.364;18.582;2023-02-15T02:14:15;101896.38;;;3.74;100.00
48364;BME280;34170;54.364;18.582;2023-02-15T02:17:10;101890.41;;;3.89;100.00
48364;BME280;34170;54.364;18.582;2023-02-15T02:31:20;101880.63;;;4.92;100.00
48364;BME280;34170;54.364;18.582;2023-02-15T02:39:07;101884.03;;;4.75;100.00
48364;BME280;34170;54.364;18.582;2023-02-15T02:48:19;101871.94;;;4.27;100.00
48364;BME280;34170;54.364;18.582;2023-02-15T02:50:29;101864.34;;;3.75;100.00
48364;BME280;34170;54.364;18.582;2023-02-15T02:52:58;101872.81;;;4.28;100.00
48364;BME280;34170;54.364;18.582;2023-02-15T02:58:56;101869.22;;;4.08;100.00
48364;BME280;34170;54.364;18.582;2023-02-15T03:01:49;101861.56;;;3.78;100.00
48364;BME280;34170;54.364;18.582;2023-02-15T03:04:23;101859.97;;;3.74;100.00
48364;BME280;34170;54.364;18.582;2023-02-15T03:07:02;101866.06;;;4.39;100.00
48364;BME280;34170;54.364;18.582;2023-02-15T03:09:35;101870.94;;;4.50;100.00
48364;BME280;34170;54.364;18.582;2023-02-15T03:12:22;101859.81;;;4.20;100.00
48364;BME280;34170;54.364;18.582;2023-02-15T03:15:10;101873.50;;;4.33;100.00
48364;BME280;34170;54.364;18.582;2023-02-15T03:17:45;101849.97;;;4.01;100.00
48364;BME280;34170;54.364;18.582;2023-02-15T03:20:30;101846.94;;;4.31;100.00
48364;BME280;34170;54.364;18.582;2023-02-15T03:23:04;101856.28;;;4.61;100.00
48364;BME280;34170;54.364;18.582;2023-02-15T03:25:41;101855.31;;;4.22;100.00
48364;BME280;34170;54.364;18.582;2023-02-15T03:28:23;101842.25;;;3.95;100.00
48364;BME280;34170;54.364;18.582;2023-02-15T03:30:54;101843.78;;;3.79;100.00
48364;BME280;34170;54.364;18.582;2023-02-15T03:33:23;101842.25;;;4.16;100.00
48364;BME280;34170;54.364;18.582;2023-02-15T03:38:51;101833.72;;;4.08;100.00
48364;BME280;34170;54.364;18.582;2023-02-15T03:41:18;101845.41;;;3.83;100.00
48364;BME280;34170;54.364;18.582;2023-02-15T03:44:06;101841.84;;;4.05;100.00
48364;BME280;34170;54.364;18.582;2023-02-15T03:49:36;101837.13;;;3.69;100.00
48364;BME280;34170;54.364;18.582;2023-02-15T03:52:05;101830.00;;;4.32;100.00
48364;BME280;34170;54.364;18.582;2023-02-15T03:54:35;101833.03;;;4.64;100.00
48364;BME280;34170;54.364;18.582;2023-02-15T03:57:24;101831.72;;;4.33;100.00
48364;BME280;34170;54.364;18.582;2023-02-15T04:00:19;101836.38;;;3.87;100.00
48364;BME280;34170;54.364;18.582;2023-02-15T04:05:52;101825.81;;;4.27;100.00
48364;BME280;34170;54.364;18.582;2023-02-15T04:08:19;101825.28;;;4.39;100.00
48364;BME280;34170;54.364;18.582;2023-02-15T04:10:46;101826.22;;;4.17;100.00
48364;BME280;34170;54.364;18.582;2023-02-15T04:13:39;101829.22;;;4.10;100.00
48364;BME280;34170;54.364;18.582;2023-02-15T04:16:07;101830.13;;;4.50;100.00
48364;BME280;34170;54.364;18.582;2023-02-15T04:18:40;101826.06;;;4.62;100.00
48364;BME280;34170;54.364;18.582;2023-02-15T04:21:30;101831.28;;;4.63;100.00
48364;BME280;34170;54.364;18.582;2023-02-15T04:24:16;101829.09;;;4.73;100.00
48364;BME280;34170;54.364;18.582;2023-02-15T04:27:03;101823.19;;;4.85;100.00
48364;BME280;34170;54.364;18.582;2023-02-15T04:29:31;101832.69;;;4.91;100.00
48364;BME280;34170;54.364;18.582;2023-02-15T04:32:00;101827.41;;;4.70;100.00
48364;BME280;34170;54.364;18.582;2023-02-15T04:34:28;101828.00;;;4.77;100.00
48364;BME280;34170;54.364;18.582;2023-02-15T04:36:56;101817.31;;;4.58;100.00
48364;BME280;34170;54.364;18.582;2023-02-15T04:39:23;101815.56;;;4.77;100.00
48364;BME280;34170;54.364;18.582;2023-02-15T04:41:50;101811.19;;;4.56;100.00
48364;BME280;34170;54.364;18.582;2023-02-15T04:44:18;101808.06;;;4.86;100.00
48364;BME280;34170;54.364;18.582;2023-02-15T04:46:45;101813.94;;;4.54;100.00
48364;BME280;34170;54.364;18.582;2023-02-15T04:49:13;101806.56;;;4.59;100.00
48364;BME280;34170;54.364;18.582;2023-02-15T04:51:40;101807.03;;;4.69;100.00
48364;BME280;34170;54.364;18.582;2023-02-15T04:54:08;101810.97;;;4.61;100.00
48364;BME280;34170;54.364;18.582;2023-02-15T04:56:35;101813.22;;;4.51;100.00
48364;BME280;34170;54.364;18.582;2023-02-15T04:59:05;101812.25;;;4.72;100.00
48364;BME280;34170;54.364;18.582;2023-02-15T05:01:33;101808.63;;;4.73;100.00
48364;BME280;34170;54.364;18.582;2023-02-15T05:04:00;101791.78;;;4.92;100.00
48364;BME280;34170;54.364;18.582;2023-02-15T05:06:28;101800.84;;;5.07;100.00
48364;BME280;34170;54.364;18.582;2023-02-15T05:08:56;101790.63;;;4.78;100.00
48364;BME280;34170;54.364;18.582;2023-02-15T05:11:26;101806.13;;;4.50;100.00
48364;BME280;34170;54.364;18.582;2023-02-15T05:13:54;101804.97;;;4.36;100.00
48364;BME280;34170;54.364;18.582;2023-02-15T05:16:21;101798.81;;;4.34;100.00
48364;BME280;34170;54.364;18.582;2023-02-15T05:18:49;101802.44;;;4.73;100.00
48364;BME280;34170;54.364;18.582;2023-02-15T05:21:16;101802.16;;;4.39;100.00
48364;BME280;34170;54.364;18.582;2023-02-15T05:23:44;101781.66;;;4.00;100.00
48364;BME280;34170;54.364;18.582;2023-02-15T05:26:16;101798.34;;;4.45;100.00
48364;BME280;34170;54.364;18.582;2023-02-15T05:29:03;101796.97;;;4.76;100.00
48364;BME280;34170;54.364;18.582;2023-02-15T05:31:31;101801.09;;;4.23;100.00
48364;BME280;34170;54.364;18.582;2023-02-15T05:33:59;101795.03;;;4.40;100.00
48364;BME280;34170;54.364;18.582;2023-02-15T05:36:26;101793.47;;;4.55;100.00
48364;BME280;34170;54.364;18.582;2023-02-15T05:38:55;101789.19;;;4.11;100.00
48364;BME280;34170;54.364;18.582;2023-02-15T05:41:23;101781.66;;;4.61;100.00
48364;BME280;34170;54.364;18.582;2023-02-15T05:43:51;101781.31;;;4.68;100.00
48364;BME280;34170;54.364;18.582;2023-02-15T05:46:18;101777.88;;;4.27;100.00
48364;BME280;34170;54.364;18.582;2023-02-15T05:48:45;101777.38;;;4.58;100.00
48364;BME280;34170;54.364;18.582;2023-02-15T05:51:13;101782.66;;;4.18;100.00
48364;BME280;34170;54.364;18.582;2023-02-15T05:53:42;101779.75;;;3.84;100.00
48364;BME280;34170;54.364;18.582;2023-02-15T05:56:10;101775.44;;;4.22;100.00
48364;BME280;34170;54.364;18.582;2023-02-15T05:58:39;101774.91;;;4.53;100.00
48364;BME280;34170;54.364;18.582;2023-02-15T06:01:25;101779.00;;;4.00;100.00
48364;BME280;34170;54.364;18.582;2023-02-15T06:03:52;101768.09;;;3.86;100.00
48364;BME280;34170;54.364;18.582;2023-02-15T06:06:21;101770.59;;;4.30;100.00
48364;BME280;34170;54.364;18.582;2023-02-15T06:08:49;101774.00;;;4.34;100.00
48364;BME280;34170;54.364;18.582;2023-02-15T06:11:16;101773.81;;;4.38;100.00
48364;BME280;34170;54.364;18.582;2023-02-15T06:13:44;101776.03;;;4.48;100.00
48364;BME280;34170;54.364;18.582;2023-02-15T06:16:11;101774.41;;;4.25;100.00
48364;BME280;34170;54.364;18.582;2023-02-15T06:18:39;101777.00;;;4.06;100.00
48364;BME280;34170;54.364;18.582;2023-02-15T06:21:06;101774.03;;;4.13;100.00
48364;BME280;34170;54.364;18.582;2023-02-15T06:23:34;101770.72;;;4.27;100.00
48364;BME280;34170;54.364;18.582;2023-02-15T06:26:01;101771.28;;;3.74;100.00
48364;BME280;34170;54.364;18.582;2023-02-15T06:28:29;101769.56;;;4.14;100.00
48364;BME280;34170;54.364;18.582;2023-02-15T06:30:57;101778.22;;;4.58;100.00
48364;BME280;34170;54.364;18.582;2023-02-15T06:33:24;101777.44;;;4.75;100.00
48364;BME280;34170;54.364;18.582;2023-02-15T06:35:52;101765.63;;;4.23;100.00
48364;BME280;34170;54.364;18.582;2023-02-15T06:38:19;101775.13;;;4.08;100.00
48364;BME280;34170;54.364;18.582;2023-02-15T06:40:47;101768.41;;;4.59;100.00
48364;BME280;34170;54.364;18.582;2023-02-15T06:43:14;101772.66;;;4.24;100.00
48364;BME280;34170;54.364;18.582;2023-02-15T06:45:41;101768.72;;;4.53;100.00
48364;BME280;34170;54.364;18.582;2023-02-15T06:48:09;101761.63;;;4.52;100.00
48364;BME280;34170;54.364;18.582;2023-02-15T06:50:38;101766.06;;;4.53;100.00
48364;BME280;34170;54.364;18.582;2023-02-15T06:53:05;101756.19;;;4.74;100.00
48364;BME280;34170;54.364;18.582;2023-02-15T06:55:33;101760.78;;;5.08;100.00
48364;BME280;34170;54.364;18.582;2023-02-15T06:58:00;101760.50;;;4.76;100.00
48364;BME280;34170;54.364;18.582;2023-02-15T07:00:28;101762.44;;;5.11;100.00
48364;BME280;34170;54.364;18.582;2023-02-15T07:02:58;101755.22;;;4.37;100.00
48364;BME280;34170;54.364;18.582;2023-02-15T07:05:27;101759.34;;;4.44;100.00
48364;BME280;34170;54.364;18.582;2023-02-15T07:07:59;101755.09;;;4.97;100.00
48364;BME280;34170;54.364;18.582;2023-02-15T07:10:27;101760.72;;;4.91;100.00
48364;BME280;34170;54.364;18.582;2023-02-15T07:12:54;101748.47;;;4.68;100.00
48364;BME280;34170;54.364;18.582;2023-02-15T07:15:22;101746.22;;;4.39;100.00
48364;BME280;34170;54.364;18.582;2023-02-15T07:17:50;101738.03;;;4.63;100.00
48364;BME280;34170;54.364;18.582;2023-02-15T07:20:20;101745.06;;;5.02;100.00
48364;BME280;34170;54.364;18.582;2023-02-15T07:22:49;101741.41;;;4.48;100.00
48364;BME280;34170;54.364;18.582;2023-02-15T07:25:17;101750.50;;;4.82;100.00
48364;BME280;34170;54.364;18.582;2023-02-15T07:27:45;101742.63;;;4.78;100.00
48364;BME280;34170;54.364;18.582;2023-02-15T07:30:15;101736.56;;;4.56;100.00
48364;BME280;34170;54.364;18.582;2023-02-15T07:32:43;101744.66;;;4.92;100.00
48364;BME280;34170;54.364;18.582;2023-02-15T07:35:33;101740.06;;;4.58;100.00
48364;BME280;34170;54.364;18.582;2023-02-15T07:38:00;101736.16;;;5.03;100.00
48364;BME280;34170;54.364;18.582;2023-02-15T07:40:28;101742.19;;;5.07;100.00
48364;BME280;34170;54.364;18.582;2023-02-15T07:42:57;101738.03;;;5.19;100.00
48364;BME280;34170;54.364;18.582;2023-02-15T07:45:25;101726.00;;;5.29;100.00
48364;BME280;34170;54.364;18.582;2023-02-15T07:47:52;101717.94;;;5.48;100.00
48364;BME280;34170;54.364;18.582;2023-02-15T07:50:20;101717.69;;;5.35;100.00
48364;BME280;34170;54.364;18.582;2023-02-15T07:52:47;101722.13;;;5.71;100.00
48364;BME280;34170;54.364;18.582;2023-02-15T07:55:14;101724.97;;;5.14;100.00
48364;BME280;34170;54.364;18.582;2023-02-15T07:57:47;101720.19;;;4.65;100.00
48364;BME280;34170;54.364;18.582;2023-02-15T08:00:17;101720.34;;;5.18;100.00
48364;BME280;34170;54.364;18.582;2023-02-15T08:02:49;101705.97;;;5.20;100.00
48364;BME280;34170;54.364;18.582;2023-02-15T08:05:38;101714.25;;;5.50;100.00
48364;BME280;34170;54.364;18.582;2023-02-15T08:08:06;101694.47;;;5.72;99.66
48364;BME280;34170;54.364;18.582;2023-02-15T08:10:35;101692.69;;;5.72;98.54
48364;BME280;34170;54.364;18.582;2023-02-15T08:13:21;101699.66;;;5.40;100.00
48364;BME280;34170;54.364;18.582;2023-02-15T08:15:50;101700.00;;;5.15;100.00
48364;BME280;34170;54.364;18.582;2023-02-15T08:18:17;101695.19;;;5.58;100.00
48364;BME280;34170;54.364;18.582;2023-02-15T08:20:50;101698.25;;;4.96;100.00
48364;BME280;34170;54.364;18.582;2023-02-15T08:23:18;101687.81;;;4.92;100.00
48364;BME280;34170;54.364;18.582;2023-02-15T08:25:45;101690.28;;;5.14;100.00
48364;BME280;34170;54.364;18.582;2023-02-15T08:28:12;101686.88;;;4.93;100.00
48364;BME280;34170;54.364;18.582;2023-02-15T08:30:40;101678.84;;;5.64;100.00
48364;BME280;34170;54.364;18.582;2023-02-15T08:33:07;101682.41;;;5.47;100.00
48364;BME280;34170;54.364;18.582;2023-02-15T08:35:37;101679.56;;;5.50;100.00
48364;BME280;34170;54.364;18.582;2023-02-15T08:38:04;101680.47;;;4.78;100.00
48364;BME280;34170;54.364;18.582;2023-02-15T08:40:31;101673.56;;;5.10;100.00
48364;BME280;34170;54.364;18.582;2023-02-15T08:42:59;101681.88;;;5.74;100.00
48364;BME280;34170;54.364;18.582;2023-02-15T08:45:26;101683.47;;;5.78;100.00
48364;BME280;34170;54.364;18.582;2023-02-15T08:47:54;101668.28;;;5.28;100.00
48364;BME280;34170;54.364;18.582;2023-02-15T08:50:21;101678.06;;;5.45;100.00
48364;BME280;34170;54.364;18.582;2023-02-15T08:52:48;101666.75;;;5.22;100.00
48364;BME280;34170;54.364;18.582;2023-02-15T08:55:16;101664.09;;;5.40;100.00
48364;BME280;34170;54.364;18.582;2023-02-15T08:57:43;101661.97;;;5.29;100.00
48364;BME280;34170;54.364;18.582;2023-02-15T09:00:13;101663.84;;;5.27;100.00
48364;BME280;34170;54.364;18.582;2023-02-15T09:02:40;101671.13;;;5.76;100.00
48364;BME280;34170;54.364;18.582;2023-02-15T09:05:08;101648.88;;;5.42;100.00
48364;BME280;34170;54.364;18.582;2023-02-15T09:07:36;101656.66;;;5.46;100.00
48364;BME280;34170;54.364;18.582;2023-02-15T09:10:03;101654.59;;;5.34;100.00
48364;BME280;34170;54.364;18.582;2023-02-15T09:12:31;101642.56;;;5.08;100.00
48364;BME280;34170;54.364;18.582;2023-02-15T09:14:58;101659.47;;;5.08;100.00
48364;BME280;34170;54.364;18.582;2023-02-15T09:17:26;101658.22;;;5.33;100.00
48364;BME280;34170;54.364;18.582;2023-02-15T09:19:53;101649.78;;;5.76;100.00
48364;BME280;34170;54.364;18.582;2023-02-15T09:22:21;101649.75;;;5.93;99.79
48364;BME280;34170;54.364;18.582;2023-02-15T09:24:48;101658.38;;;6.16;99.16
48364;BME280;34170;54.364;18.582;2023-02-15T09:27:16;101647.66;;;5.82;100.00
48364;BME280;34170;54.364;18.582;2023-02-15T09:29:43;101649.84;;;6.09;98.63
48364;BME280;34170;54.364;18.582;2023-02-15T09:32:13;101632.53;;;6.16;97.61
48364;BME280;34170;54.364;18.582;2023-02-15T09:34:41;101639.00;;;5.95;98.69
48364;BME280;34170;54.364;18.582;2023-02-15T09:37:08;101644.94;;;5.66;99.56
48364;BME280;34170;54.364;18.582;2023-02-15T09:39:39;101637.66;;;5.35;100.00
48364;BME280;34170;54.364;18.582;2023-02-15T09:42:39;101645.78;;;5.67;nan
48364;BME280;34170;54.364;18.582;2023-02-15T09:53:52;101627.06;;;5.84;91.11
48364;BME280;34170;54.364;18.582;2023-02-15T09:56:39;101627.97;;;5.85;91.25
48364;BME280;34170;54.364;18.582;2023-02-15T09:59:21;101631.88;;;5.78;92.00
48364;BME280;34170;54.364;18.582;2023-02-15T10:02:18;101628.66;;;5.88;90.76
48364;BME280;34170;54.364;18.582;2023-02-15T10:07:53;101618.25;;;6.33;87.89
48364;BME280;34170;54.364;18.582;2023-02-15T10:13:11;101607.38;;;6.36;85.17
48364;BME280;34170;54.364;18.582;2023-02-15T10:26:43;101619.50;;;6.26;84.95
48364;BME280;34170;54.364;18.582;2023-02-15T10:29:36;101618.50;;;6.60;83.29
48364;BME280;34170;54.364;18.582;2023-02-15T10:32:22;101611.78;;;6.53;82.63
48364;BME280;34170;54.364;18.582;2023-02-15T10:35:00;101608.75;;;6.43;82.23
48364;BME280;34170;54.364;18.582;2023-02-15T10:45:31;101606.31;;;6.71;80.39
48364;BME280;34170;54.364;18.582;2023-02-15T10:48:09;101599.59;;;7.10;79.35
48364;BME280;34170;54.364;18.582;2023-02-15T10:50:45;101595.56;;;7.02;79.84
48364;BME280;34170;54.364;18.582;2023-02-15T10:56:20;101587.38;;;7.05;78.03
48364;BME280;34170;54.364;18.582;2023-02-15T11:07:33;101571.31;;;6.59;80.75
48364;BME280;34170;54.364;18.582;2023-02-15T11:12:48;101568.59;;;6.45;82.25
48364;BME280;34170;54.364;18.582;2023-02-15T11:15:19;101563.03;;;6.80;80.38
48364;BME280;34170;54.364;18.582;2023-02-15T11:17:57;101563.88;;;7.11;78.68
48364;BME280;34170;54.364;18.582;2023-02-15T11:20:30;101553.31;;;7.38;77.77
48364;BME280;34170;54.364;18.582;2023-02-15T11:23:01;101549.63;;;6.96;78.15
48364;BME280;34170;54.364;18.582;2023-02-15T11:25:31;101553.44;;;7.06;78.18
48364;BME280;34170;54.364;18.582;2023-02-15T11:28:04;101557.31;;;7.31;77.29
48364;BME280;34170;54.364;18.582;2023-02-15T11:30:49;101556.41;;;7.46;76.60
48364;BME280;34170;54.364;18.582;2023-02-15T11:33:26;101550.00;;;7.63;75.11
48364;BME280;34170;54.364;18.582;2023-02-15T11:36:12;101544.06;;;7.43;75.59
48364;BME280;34170;54.364;18.582;2023-02-15T11:38:41;101546.06;;;7.54;75.60
48364;BME280;34170;54.364;18.582;2023-02-15T11:41:13;101557.75;;;7.68;73.85
48364;BME280;34170;54.364;18.582;2023-02-15T11:43:50;101544.59;;;7.20;77.43
48364;BME280;34170;54.364;18.582;2023-02-15T11:46:21;101541.00;;;7.64;74.67
48364;BME280;34170;54.364;18.582;2023-02-15T11:48:49;101535.25;;;7.41;75.29
48364;BME280;34170;54.364;18.582;2023-02-15T11:51:21;101534.91;;;7.62;75.07
48364;BME280;34170;54.364;18.582;2023-02-15T11:53:51;101522.16;;;7.80;73.73
48364;BME280;34170;54.364;18.582;2023-02-15T11:56:21;101509.44;;;7.83;73.08
48364;BME280;34170;54.364;18.582;2023-02-15T11:59:00;101521.50;;;7.91;73.18
48364;BME280;34170;54.364;18.582;2023-02-15T12:01:33;101520.19;;;8.11;71.42
48364;BME280;34170;54.364;18.582;2023-02-15T12:04:20;101513.63;;;7.88;72.13
48364;BME280;34170;54.364;18.582;2023-02-15T12:06:54;101512.06;;;8.12;71.79
48364;BME280;34170;54.364;18.582;2023-02-15T12:09:40;101501.28;;;7.99;71.82
48364;BME280;34170;54.364;18.582;2023-02-15T12:12:24;101510.31;;;7.55;73.55
48364;BME280;34170;54.364;18.582;2023-02-15T12:15:04;101507.50;;;8.00;72.26
48364;BME280;34170;54.364;18.582;2023-02-15T12:17:34;101501.78;;;7.77;72.73
48364;BME280;34170;54.364;18.582;2023-02-15T12:23:02;101496.31;;;6.62;76.91
48364;BME280;34170;54.364;18.582;2023-02-15T12:25:37;101488.31;;;7.21;75.00
48364;BME280;34170;54.364;18.582;2023-02-15T12:28:34;101481.91;;;7.53;73.97
48364;BME280;34170;54.364;18.582;2023-02-15T12:31:18;101480.44;;;7.90;72.57
48364;BME280;34170;54.364;18.582;2023-02-15T12:33:51;101482.56;;;7.56;73.09
48364;BME280;34170;54.364;18.582;2023-02-15T12:36:22;101484.94;;;7.90;72.46
48364;BME280;34170;54.364;18.582;2023-02-15T12:42:03;101486.19;;;8.26;71.23
48364;BME280;34170;54.364;18.582;2023-02-15T12:44:35;101484.59;;;7.24;74.57
48364;BME280;34170;54.364;18.582;2023-02-15T12:49:44;101483.16;;;7.61;73.58
48364;BME280;34170;54.364;18.582;2023-02-15T12:54:44;101479.19;;;7.81;72.84
48364;BME280;34170;54.364;18.582;2023-02-15T12:59:57;101481.06;;;8.08;71.15
48364;BME280;34170;54.364;18.582;2023-02-15T13:02:48;101469.38;;;8.09;70.40
48364;BME280;34170;54.364;18.582;2023-02-15T13:05:18;101452.59;;;7.37;73.51
48364;BME280;34170;54.364;18.582;2023-02-15T13:07:53;101448.50;;;7.87;72.48
48364;BME280;34170;54.364;18.582;2023-02-15T13:10:33;101451.00;;;8.17;71.59
48364;BME280;34170;54.364;18.582;2023-02-15T13:13:01;101445.84;;;7.87;72.04
48364;BME280;34170;54.364;18.582;2023-02-15T13:15:39;101449.75;;;7.81;71.85
48364;BME280;34170;54.364;18.582;2023-02-15T13:18:38;101439.97;;;7.95;71.46
48364;BME280;34170;54.364;18.582;2023-02-15T13:21:12;101445.19;;;8.11;70.60
48364;BME280;34170;54.364;18.582;2023-02-15T13:26:37;101438.44;;;7.91;72.43
48364;BME280;34170;54.364;18.582;2023-02-15T13:29:10;101440.16;;;7.21;75.22
48364;BME280;34170;54.364;18.582;2023-02-15T13:31:39;101439.50;;;7.03;75.77
48364;BME280;34170;54.364;18.582;2023-02-15T13:34:19;101433.69;;;7.67;74.86
48364;BME280;34170;54.364;18.582;2023-02-15T13:40:22;101436.78;;;8.02;72.52
48364;BME280;34170;54.364;18.582;2023-02-15T13:52:18;101421.38;;;7.64;73.96
48364;BME280;34170;54.364;18.582;2023-02-15T13:54:41;101422.94;;;7.96;71.83
48364;BME280;34170;54.364;18.582;2023-02-15T14:00:22;101413.84;;;7.57;74.06
48364;BME280;34170;54.364;18.582;2023-02-15T14:08:52;101403.50;;;5.56;88.26
48364;BME280;34170;54.364;18.582;2023-02-15T14:11:37;101401.69;;;6.51;83.44
48364;BME280;34170;54.364;18.582;2023-02-15T14:17:49;101404.72;;;7.03;80.06
48364;BME280;34170;54.364;18.582;2023-02-15T14:20:15;101398.97;;;6.81;79.63
48364;BME280;34170;54.364;18.582;2023-02-15T14:31:18;101382.59;;;6.12;84.30
48364;BME280;34170;54.364;18.582;2023-02-15T14:33:58;101384.41;;;6.56;82.38
48364;BME280;34170;54.364;18.582;2023-02-15T14:36:27;101391.09;;;6.63;83.02
48364;BME280;34170;54.364;18.582;2023-02-15T14:41:49;101384.22;;;5.99;87.97
48364;BME280;34170;54.364;18.582;2023-02-15T14:44:27;101366.50;;;5.98;87.76
48364;BME280;34170;54.364;18.582;2023-02-15T14:47:06;101373.22;;;5.89;87.04
48364;BME280;34170;54.364;18.582;2023-02-15T14:49:38;101360.56;;;5.77;89.18
48364;BME280;34170;54.364;18.582;2023-02-15T14:52:07;101361.84;;;5.85;87.73
48364;BME280;34170;54.364;18.582;2023-02-15T15:02:23;101354.78;;;5.84;90.44
48364;BME280;34170;54.364;18.582;2023-02-15T15:07:25;101357.78;;;6.10;89.45
48364;BME280;34170;54.364;18.582;2023-02-15T15:12:57;101358.06;;;5.42;95.01
48364;BME280;34170;54.364;18.582;2023-02-15T15:20:51;101345.69;;;5.57;96.07
48364;BME280;34170;54.364;18.582;2023-02-15T15:25:49;101343.25;;;5.68;96.06
48364;BME280;34170;54.364;18.582;2023-02-15T15:31:19;101335.47;;;5.17;99.99
48364;BME280;34170;54.364;18.582;2023-02-15T15:34:28;101341.03;;;5.12;100.00
48364;BME280;34170;54.364;18.582;2023-02-15T15:40:11;101329.09;;;5.35;98.99
48364;BME280;34170;54.364;18.582;2023-02-15T15:48:31;101335.03;;;5.25;99.49
48364;BME280;34170;54.364;18.582;2023-02-15T15:51:04;101322.28;;;5.14;100.00
48364;BME280;34170;54.364;18.582;2023-02-15T15:53:38;101327.41;;;4.85;100.00
48364;BME280;34170;54.364;18.582;2023-02-15T15:56:13;101319.66;;;4.81;100.00
48364;BME280;34170;54.364;18.582;2023-02-15T15:58:51;101313.19;;;4.69;100.00
48364;BME280;34170;54.364;18.582;2023-02-15T16:01:29;101306.44;;;5.11;100.00